sensor_id;sensor_type;location;lat;lon;timestamp;pressure;altitude;pressure_sealevel;temperature;humidity
6038;BME280;3047;42.600;23.470;2023-05-20T00:02:12;93370.53;;;13.42;100.00
6038;BME280;3047;42.600;23.470;2023-05-20T00:04:39;93374.22;;;13.33;100.00
6038;BME280;3047;42.600;23.470;2023-05-20T00:07:06;93360.63;;;13.34;100.00
6038;BME280;3047;42.600;23.470;2023-05-20T00:09:34;93365.91;;;13.28;100.00
6038;BME280;3047;42.600;23.470;2023-05-20T00:12:01;93330.34;;;13.05;100.00
6038;BME280;3047;42.600;23.470;2023-05-20T00:14:28;93359.84;;;13.07;100.00
6038;BME280;3047;42.600;23.470;2023-05-20T00:16:54;93366.25;;;13.18;100.00
6038;BME280;3047;42.600;23.470;2023-05-20T00:19:21;93373.06;;;13.16;100.00
6038;BME280;3047;42.600;23.470;2023-05-20T00:21:48;93372.91;;;13.20;100.00
6038;BME280;3047;42.600;23.470;2023-05-20T00:24:14;93370.69;;;13.11;100.00
6038;BME280;3047;42.600;23.470;2023-05-20T00:26:42;93370.34;;;13.22;100.00
6038;BME280;3047;42.600;23.470;2023-05-20T00:29:09;93365.88;;;13.30;100.00
6038;BME280;3047;42.600;23.470;2023-05-20T00:31:36;93365.78;;;13.33;100.00
6038;BME280;3047;42.600;23.470;2023-05-20T00:34:03;93353.75;;;13.13;100.00
6038;BME280;3047;42.600;23.470;2023-05-20T00:36:30;93357.66;;;13.22;100.00
6038;BME280;3047;42.600;23.470;2023-05-20T00:38:56;93353.94;;;13.32;100.00
6038;BME280;3047;42.600;23.470;2023-05-20T00:41:23;93351.63;;;13.26;100.00
6038;BME280;3047;42.600;23.470;2023-05-20T00:43:53;93339.19;;;13.18;100.00
6038;BME280;3047;42.600;23.470;2023-05-20T00:46:20;93326.41;;;13.21;100.00
6038;BME280;3047;42.600;23.470;2023-05-20T00:48:47;93314.75;;;13.16;100.00
6038;BME280;3047;42.600;23.470;2023-05-20T00:51:15;93327.56;;;13.13;100.00
6038;BME280;3047;42.600;23.470;2023-05-20T00:53:42;93309.03;;;12.85;100.00
6038;BME280;3047;42.600;23.470;2023-05-20T00:56:09;93328.81;;;13.01;100.00
6038;BME280;3047;42.600;23.470;2023-05-20T00:58:36;93335.16;;;13.13;100.00
6038;BME280;3047;42.600;23.470;2023-05-20T01:01:04;93335.91;;;13.15;100.00
6038;BME280;3047;42.600;23.470;2023-05-20T01:03:31;93342.53;;;13.19;100.00
6038;BME280;3047;42.600;23.470;2023-05-20T01:05:58;93341.00;;;13.15;100.00
6038;BME280;3047;42.600;23.470;2023-05-20T01:08:25;93351.63;;;13.26;100.00
6038;BME280;3047;42.600;23.470;2023-05-20T01:11:02;93356.75;;;13.24;100.00
6038;BME280;3047;42.600;23.470;2023-05-20T01:13:34;93350.97;;;12.94;100.00
6038;BME280;3047;42.600;23.470;2023-05-20T01:16:04;93349.44;;;12.90;100.00
6038;BME280;3047;42.600;23.470;2023-05-20T01:18:32;93356.22;;;12.90;100.00
6038;BME280;3047;42.600;23.470;2023-05-20T01:21:01;93334.47;;;12.82;100.00
6038;BME280;3047;42.600;23.470;2023-05-20T01:23:33;93349.34;;;12.93;100.00
6038;BME280;3047;42.600;23.470;2023-05-20T01:26:03;93351.50;;;13.04;100.00
6038;BME280;3047;42.600;23.470;2023-05-20T01:28:30;93341.59;;;12.96;100.00
6038;BME280;3047;42.600;23.470;2023-05-20T01:30:59;93337.31;;;12.98;100.00
6038;BME280;3047;42.600;23.470;2023-05-20T01:33:27;93335.78;;;12.94;100.00
6038;BME280;3047;42.600;23.470;2023-05-20T01:35:55;93332.91;;;12.78;100.00
6038;BME280;3047;42.600;23.470;2023-05-20T01:38:23;93345.75;;;12.74;100.00
6038;BME280;3047;42.600;23.470;2023-05-20T01:40:52;93334.72;;;12.75;100.00
6038;BME280;3047;42.600;23.470;2023-05-20T01:43:20;93339.84;;;12.73;100.00
6038;BME280;3047;42.600;23.470;2023-05-20T01:45:46;93343.06;;;12.78;100.00
6038;BME280;3047;42.600;23.470;2023-05-20T01:48:13;93334.69;;;12.76;100.00
6038;BME280;3047;42.600;23.470;2023-05-20T01:50:41;93336.66;;;12.68;100.00
6038;BME280;3047;42.600;23.470;2023-05-20T01:53:07;93340.19;;;12.62;100.00
6038;BME280;3047;42.600;23.470;2023-05-20T01:55:34;93343.59;;;12.61;100.00
6038;BME280;3047;42.600;23.470;2023-05-20T01:58:02;93328.72;;;12.52;100.00
6038;BME280;3047;42.600;23.470;2023-05-20T02:00:29;93336.59;;;12.70;100.00
6038;BME280;3047;42.600;23.470;2023-05-20T02:02:56;93341.72;;;12.68;100.00
6038;BME280;3047;42.600;23.470;2023-05-20T02:05:22;93347.84;;;12.61;100.00
6038;BME280;3047;42.600;23.470;2023-05-20T02:07:49;93290.53;;;12.30;100.00
6038;BME280;3047;42.600;23.470;2023-05-20T02:10:16;93340.28;;;12.59;100.00
6038;BME280;3047;42.600;23.470;2023-05-20T02:12:43;93331.91;;;12.57;100.00
6038;BME280;3047;42.600;23.470;2023-05-20T02:15:11;93335.09;;;12.64;100.00
6038;BME280;3047;42.600;23.470;2023-05-20T02:17:38;93332.44;;;12.67;100.00
6038;BME280;3047;42.600;23.470;2023-05-20T02:20:08;93317.03;;;12.73;100.00
6038;BME280;3047;42.600;23.470;2023-05-20T02:22:36;93327.22;;;12.72;100.00
6038;BME280;3047;42.600;23.470;2023-05-20T02:25:03;93326.50;;;12.68;100.00
6038;BME280;3047;42.600;23.470;2023-05-20T02:27:29;93326.69;;;12.62;100.00
6038;BME280;3047;42.600;23.470;2023-05-20T02:29:56;93326.84;;;12.57;100.00
6038;BME280;3047;42.600;23.470;2023-05-20T02:32:24;93318.44;;;12.55;100.00
6038;BME280;3047;42.600;23.470;2023-05-20T02:34:53;93320.13;;;12.56;100.00
6038;BME280;3047;42.600;23.470;2023-05-20T02:37:19;93319.91;;;12.62;100.00
6038;BME280;3047;42.600;23.470;2023-05-20T02:39:46;93313.94;;;12.65;100.00
6038;BME280;3047;42.600;23.470;2023-05-20T02:42:13;93307.91;;;12.68;100.00
6038;BME280;3047;42.600;23.470;2023-05-20T02:44:40;93305.50;;;12.65;100.00
6038;BME280;3047;42.600;23.470;2023-05-20T02:47:06;93316.25;;;12.71;100.00
6038;BME280;3047;42.600;23.470;2023-05-20T02:49:34;93321.53;;;12.65;100.00
6038;BME280;3047;42.600;23.470;2023-05-20T02:52:02;93307.69;;;12.49;100.00
6038;BME280;3047;42.600;23.470;2023-05-20T02:54:28;93321.69;;;12.60;100.00
6038;BME280;3047;42.600;23.470;2023-05-20T02:56:55;93326.09;;;12.54;100.00
6038;BME280;3047;42.600;23.470;2023-05-20T02:59:22;93320.13;;;12.56;100.00
6038;BME280;3047;42.600;23.470;2023-05-20T03:01:48;93317.75;;;12.52;100.00
6038;BME280;3047;42.600;23.470;2023-05-20T03:04:15;93321.88;;;12.54;100.00
6038;BME280;3047;42.600;23.470;2023-05-20T03:06:44;93333.31;;;12.66;100.00
6038;BME280;3047;42.600;23.470;2023-05-20T03:09:12;93332.75;;;12.58;100.00
6038;BME280;3047;42.600;23.470;2023-05-20T03:11:38;93331.91;;;12.57;100.00
6038;BME280;3047;42.600;23.470;2023-05-20T03:14:05;93333.31;;;12.66;100.00
6038;BME280;3047;42.600;23.470;2023-05-20T03:16:32;93346.91;;;12.63;100.00
6038;BME280;3047;42.600;23.470;2023-05-20T03:18:59;93343.41;;;12.68;100.00
6038;BME280;3047;42.600;23.470;2023-05-20T03:21:26;93355.31;;;12.66;100.00
6038;BME280;3047;42.600;23.470;2023-05-20T03:23:54;93349.31;;;12.68;100.00
6038;BME280;3047;42.600;23.470;2023-05-20T03:26:21;93339.84;;;12.47;100.00
6038;BME280;3047;42.600;23.470;2023-05-20T03:28:49;93348.63;;;12.63;100.00
6038;BME280;3047;42.600;23.470;2023-05-20T03:31:16;93330.94;;;12.61;100.00
6038;BME280;3047;42.600;23.470;2023-05-20T03:33:43;93339.13;;;12.70;100.00
6038;BME280;3047;42.600;23.470;2023-05-20T03:36:10;93339.59;;;12.81;100.00
6038;BME280;3047;42.600;23.470;2023-05-20T03:38:37;93345.53;;;12.80;100.00
6038;BME280;3047;42.600;23.470;2023-05-20T03:41:05;93351.53;;;12.77;100.00
6038;BME280;3047;42.600;23.470;2023-05-20T03:43:32;93339.53;;;12.82;100.00
6038;BME280;3047;42.600;23.470;2023-05-20T03:45:58;93340.19;;;12.89;100.00
6038;BME280;3047;42.600;23.470;2023-05-20T03:48:25;93325.63;;;12.94;100.00
6038;BME280;3047;42.600;23.470;2023-05-20T03:50:52;93344.94;;;12.98;100.00
6038;BME280;3047;42.600;23.470;2023-05-20T03:53:19;93332.50;;;12.91;100.00
6038;BME280;3047;42.600;23.470;2023-05-20T03:55:45;93347.22;;;13.06;100.00
6038;BME280;3047;42.600;23.470;2023-05-20T03:58:14;93351.94;;;13.17;100.00
6038;BME280;3047;42.600;23.470;2023-05-20T04:00:41;93353.50;;;13.19;100.00
6038;BME280;3047;42.600;23.470;2023-05-20T04:03:08;93326.19;;;13.02;100.00
6038;BME280;3047;42.600;23.470;2023-05-20T04:05:34;93354.47;;;13.17;100.00
6038;BME280;3047;42.600;23.470;2023-05-20T04:08:01;93355.44;;;13.13;100.00
6038;BME280;3047;42.600;23.470;2023-05-20T04:10:29;93357.75;;;13.19;100.00
6038;BME280;3047;42.600;23.470;2023-05-20T04:12:56;93362.28;;;13.35;100.00
6038;BME280;3047;42.600;23.470;2023-05-20T04:15:25;93363.50;;;13.49;100.00
6038;BME280;3047;42.600;23.470;2023-05-20T04:17:54;93355.59;;;13.58;100.00
6038;BME280;3047;42.600;23.470;2023-05-20T04:20:20;93349.72;;;13.56;100.00
6038;BME280;3047;42.600;23.470;2023-05-20T04:22:48;93351.50;;;13.54;100.00
6038;BME280;3047;42.600;23.470;2023-05-20T04:25:15;93358.78;;;13.63;100.00
6038;BME280;3047;42.600;23.470;2023-05-20T04:27:42;93358.16;;;13.80;100.00
6038;BME280;3047;42.600;23.470;2023-05-20T04:30:09;93365.88;;;14.00;100.00
6038;BME280;3047;42.600;23.470;2023-05-20T04:32:38;93367.44;;;14.04;100.00
6038;BME280;3047;42.600;23.470;2023-05-20T04:35:06;93366.13;;;14.16;100.00
6038;BME280;3047;42.600;23.470;2023-05-20T04:37:36;93365.50;;;14.33;100.00
6038;BME280;3047;42.600;23.470;2023-05-20T04:40:03;93339.81;;;14.19;100.00
6038;BME280;3047;42.600;23.470;2023-05-20T04:42:31;93371.06;;;14.43;100.00
6038;BME280;3047;42.600;23.470;2023-05-20T04:44:57;93371.66;;;14.49;100.00
6038;BME280;3047;42.600;23.470;2023-05-20T04:47:26;93378.25;;;14.55;100.00
6038;BME280;3047;42.600;23.470;2023-05-20T04:49:54;93383.81;;;14.85;100.00
6038;BME280;3047;42.600;23.470;2023-05-20T04:52:22;93380.47;;;15.05;100.00
6038;BME280;3047;42.600;23.470;2023-05-20T04:54:48;93383.53;;;15.13;100.00
6038;BME280;3047;42.600;23.470;2023-05-20T04:57:15;93380.56;;;15.24;100.00
6038;BME280;3047;42.600;23.470;2023-05-20T04:59:45;93383.22;;;15.41;100.00
6038;BME280;3047;42.600;23.470;2023-05-20T05:02:12;93385.81;;;15.60;100.00
6038;BME280;3047;42.600;23.470;2023-05-20T05:04:39;93386.97;;;15.73;100.00
6038;BME280;3047;42.600;23.470;2023-05-20T05:07:07;93379.00;;;15.81;100.00
6038;BME280;3047;42.600;23.470;2023-05-20T05:09:33;93387.88;;;16.10;100.00
6038;BME280;3047;42.600;23.470;2023-05-20T05:12:00;93378.81;;;16.04;100.00
6038;BME280;3047;42.600;23.470;2023-05-20T05:14:27;93386.56;;;16.20;100.00
6038;BME280;3047;42.600;23.470;2023-05-20T05:16:54;93391.09;;;16.32;100.00
6038;BME280;3047;42.600;23.470;2023-05-20T05:19:20;93375.47;;;16.40;100.00
6038;BME280;3047;42.600;23.470;2023-05-20T05:21:47;93382.72;;;16.67;100.00
6038;BME280;3047;42.600;23.470;2023-05-20T05:24:15;93362.06;;;16.73;100.00
6038;BME280;3047;42.600;23.470;2023-05-20T05:26:42;93389.34;;;16.90;100.00
6038;BME280;3047;42.600;23.470;2023-05-20T05:29:08;93385.66;;;17.13;100.00
6038;BME280;3047;42.600;23.470;2023-05-20T05:31:35;93396.03;;;17.27;98.51
6038;BME280;3047;42.600;23.470;2023-05-20T05:34:03;93392.16;;;17.53;95.95
6038;BME280;3047;42.600;23.470;2023-05-20T05:36:32;93384.41;;;17.72;99.43
6038;BME280;3047;42.600;23.470;2023-05-20T05:38:59;93368.44;;;17.51;99.79
6038;BME280;3047;42.600;23.470;2023-05-20T05:41:27;93397.41;;;17.85;97.48
6038;BME280;3047;42.600;23.470;2023-05-20T05:43:53;93395.69;;;18.01;94.75
6038;BME280;3047;42.600;23.470;2023-05-20T05:46:20;93402.97;;;18.09;95.09
6038;BME280;3047;42.600;23.470;2023-05-20T05:48:47;93403.50;;;18.15;92.54
6038;BME280;3047;42.600;23.470;2023-05-20T05:51:15;93404.78;;;18.22;93.98
6038;BME280;3047;42.600;23.470;2023-05-20T05:53:42;93404.50;;;18.28;92.56
6038;BME280;3047;42.600;23.470;2023-05-20T05:56:09;93399.44;;;18.27;93.90
6038;BME280;3047;42.600;23.470;2023-05-20T05:58:37;93391.28;;;18.20;93.39
6038;BME280;3047;42.600;23.470;2023-05-20T06:01:04;93357.09;;;17.90;93.07
6038;BME280;3047;42.600;23.470;2023-05-20T06:03:31;93398.47;;;18.29;88.94
6038;BME280;3047;42.600;23.470;2023-05-20T06:05:57;93379.06;;;18.25;87.11
6038;BME280;3047;42.600;23.470;2023-05-20T06:08:24;93388.81;;;18.35;84.65
6038;BME280;3047;42.600;23.470;2023-05-20T06:10:51;93385.34;;;18.36;89.36
6038;BME280;3047;42.600;23.470;2023-05-20T06:13:18;93389.47;;;18.38;90.68
6038;BME280;3047;42.600;23.470;2023-05-20T06:15:48;93373.47;;;18.35;91.94
6038;BME280;3047;42.600;23.470;2023-05-20T06:18:15;93347.06;;;18.18;96.53
6038;BME280;3047;42.600;23.470;2023-05-20T06:20:42;93360.34;;;18.25;100.00
6038;BME280;3047;42.600;23.470;2023-05-20T06:23:08;93364.66;;;18.24;100.00
6038;BME280;3047;42.600;23.470;2023-05-20T06:25:35;93363.41;;;18.32;99.90
6038;BME280;3047;42.600;23.470;2023-05-20T06:28:02;93370.41;;;18.28;100.00
6038;BME280;3047;42.600;23.470;2023-05-20T06:30:29;93368.69;;;18.28;100.00
6038;BME280;3047;42.600;23.470;2023-05-20T06:32:57;93358.97;;;18.19;100.00
6038;BME280;3047;42.600;23.470;2023-05-20T06:35:24;93371.09;;;18.32;97.82
6038;BME280;3047;42.600;23.470;2023-05-20T06:37:50;93359.78;;;18.36;98.08
6038;BME280;3047;42.600;23.470;2023-05-20T06:40:17;93361.44;;;18.37;95.26
6038;BME280;3047;42.600;23.470;2023-05-20T06:42:44;93363.22;;;18.35;93.11
6038;BME280;3047;42.600;23.470;2023-05-20T06:45:11;93357.13;;;18.37;91.09
6038;BME280;3047;42.600;23.470;2023-05-20T06:47:38;93360.59;;;18.36;91.61
6038;BME280;3047;42.600;23.470;2023-05-20T06:50:07;93326.59;;;18.18;91.59
6038;BME280;3047;42.600;23.470;2023-05-20T06:52:34;93357.63;;;18.44;93.01
6038;BME280;3047;42.600;23.470;2023-05-20T06:55:00;93367.69;;;18.47;88.47
6038;BME280;3047;42.600;23.470;2023-05-20T06:57:27;93364.91;;;18.51;92.05
6038;BME280;3047;42.600;23.470;2023-05-20T06:59:54;93358.38;;;18.46;89.72
6038;BME280;3047;42.600;23.470;2023-05-20T07:02:20;93361.31;;;18.54;93.80
6038;BME280;3047;42.600;23.470;2023-05-20T07:04:47;93363.81;;;18.56;91.89
6038;BME280;3047;42.600;23.470;2023-05-20T07:07:15;93365.78;;;18.66;95.34
6038;BME280;3047;42.600;23.470;2023-05-20T07:09:42;93361.25;;;18.71;88.93
6038;BME280;3047;42.600;23.470;2023-05-20T07:12:09;93365.06;;;18.80;91.81
6038;BME280;3047;42.600;23.470;2023-05-20T07:14:36;93361.97;;;18.89;85.57
6038;BME280;3047;42.600;23.470;2023-05-20T07:17:04;93357.78;;;18.88;89.03
6038;BME280;3047;42.600;23.470;2023-05-20T07:19:31;93356.25;;;19.00;82.81
6038;BME280;3047;42.600;23.470;2023-05-20T07:21:58;93356.56;;;19.10;84.31
6038;BME280;3047;42.600;23.470;2023-05-20T07:24:26;93356.00;;;19.19;87.55
6038;BME280;3047;42.600;23.470;2023-05-20T07:26:53;93364.75;;;19.31;80.64
6038;BME280;3047;42.600;23.470;2023-05-20T07:29:20;93354.59;;;19.29;83.01
6038;BME280;3047;42.600;23.470;2023-05-20T07:31:46;93353.22;;;19.38;80.87
6038;BME280;3047;42.600;23.470;2023-05-20T07:34:13;93354.44;;;19.46;82.70
6038;BME280;3047;42.600;23.470;2023-05-20T07:36:40;93353.72;;;19.59;82.92
6038;BME280;3047;42.600;23.470;2023-05-20T07:39:08;93355.84;;;19.66;83.06
6038;BME280;3047;42.600;23.470;2023-05-20T07:41:37;93363.91;;;19.74;83.71
6038;BME280;3047;42.600;23.470;2023-05-20T07:44:04;93336.78;;;19.85;87.03
6038;BME280;3047;42.600;23.470;2023-05-20T07:46:33;93346.22;;;19.98;81.21
6038;BME280;3047;42.600;23.470;2023-05-20T07:49:00;93364.50;;;20.21;79.91
6038;BME280;3047;42.600;23.470;2023-05-20T07:51:26;93353.25;;;20.38;78.72
6038;BME280;3047;42.600;23.470;2023-05-20T07:53:53;93323.63;;;20.32;83.41
6038;BME280;3047;42.600;23.470;2023-05-20T07:56:20;93351.53;;;20.65;80.16
6038;BME280;3047;42.600;23.470;2023-05-20T07:58:53;93359.44;;;20.62;80.87
6038;BME280;3047;42.600;23.470;2023-05-20T08:01:20;93353.94;;;20.81;80.26
6038;BME280;3047;42.600;23.470;2023-05-20T08:03:47;93361.47;;;20.84;80.12
6038;BME280;3047;42.600;23.470;2023-05-20T08:06:13;93352.47;;;21.04;79.89
6038;BME280;3047;42.600;23.470;2023-05-20T08:08:40;93352.63;;;21.28;79.58
6038;BME280;3047;42.600;23.470;2023-05-20T08:11:07;93341.47;;;21.42;81.45
6038;BME280;3047;42.600;23.470;2023-05-20T08:13:34;93357.94;;;21.78;81.38
6038;BME280;3047;42.600;23.470;2023-05-20T08:16:02;93353.09;;;21.86;75.95
6038;BME280;3047;42.600;23.470;2023-05-20T08:18:30;93346.78;;;22.03;81.50
6038;BME280;3047;42.600;23.470;2023-05-20T08:20:57;93351.72;;;22.18;75.20
6038;BME280;3047;42.600;23.470;2023-05-20T08:23:24;93331.03;;;22.33;79.32
6038;BME280;3047;42.600;23.470;2023-05-20T08:25:50;93344.41;;;22.62;74.24
6038;BME280;3047;42.600;23.470;2023-05-20T08:28:17;93348.47;;;22.53;69.77
6038;BME280;3047;42.600;23.470;2023-05-20T08:30:44;93324.84;;;22.59;74.66
6038;BME280;3047;42.600;23.470;2023-05-20T08:33:13;93288.53;;;22.51;74.08
6038;BME280;3047;42.600;23.470;2023-05-20T08:35:40;93331.94;;;22.92;74.63
6038;BME280;3047;42.600;23.470;2023-05-20T08:38:06;93339.09;;;23.00;69.38
6038;BME280;3047;42.600;23.470;2023-05-20T08:40:34;93333.84;;;23.02;70.67
6038;BME280;3047;42.600;23.470;2023-05-20T08:43:00;93319.78;;;22.94;69.56
6038;BME280;3047;42.600;23.470;2023-05-20T08:45:31;93327.69;;;23.15;71.95
6038;BME280;3047;42.600;23.470;2023-05-20T08:47:58;93337.34;;;23.36;70.79
6038;BME280;3047;42.600;23.470;2023-05-20T08:50:27;93304.78;;;23.35;74.27
6038;BME280;3047;42.600;23.470;2023-05-20T08:52:53;93333.81;;;23.72;72.95
6038;BME280;3047;42.600;23.470;2023-05-20T08:55:24;93337.91;;;23.86;70.71
6038;BME280;3047;42.600;23.470;2023-05-20T08:57:52;93335.69;;;23.92;72.19
6038;BME280;3047;42.600;23.470;2023-05-20T09:00:20;93334.53;;;24.08;71.65
6038;BME280;3047;42.600;23.470;2023-05-20T09:02:48;93334.31;;;24.11;74.43
6038;BME280;3047;42.600;23.470;2023-05-20T09:05:16;93326.06;;;24.17;71.40
6038;BME280;3047;42.600;23.470;2023-05-20T09:07:44;93317.38;;;24.18;70.87
6038;BME280;3047;42.600;23.470;2023-05-20T09:10:11;93322.81;;;24.15;69.95
6038;BME280;3047;42.600;23.470;2023-05-20T09:12:38;93320.44;;;24.12;72.19
6038;BME280;3047;42.600;23.470;2023-05-20T09:15:06;93295.59;;;24.00;70.25
6038;BME280;3047;42.600;23.470;2023-05-20T09:17:34;93313.16;;;24.06;72.06
6038;BME280;3047;42.600;23.470;2023-05-20T09:20:05;93309.31;;;23.66;68.38
6038;BME280;3047;42.600;23.470;2023-05-20T09:22:33;93301.03;;;23.39;72.69
6038;BME280;3047;42.600;23.470;2023-05-20T09:25:01;93288.25;;;23.49;69.25
6038;BME280;3047;42.600;23.470;2023-05-20T09:27:28;93294.13;;;23.39;68.42
6038;BME280;3047;42.600;23.470;2023-05-20T09:29:54;93303.63;;;23.39;67.05
6038;BME280;3047;42.600;23.470;2023-05-20T09:32:21;93299.41;;;23.38;65.95
6038;BME280;3047;42.600;23.470;2023-05-20T09:34:52;93293.06;;;23.53;68.29
6038;BME280;3047;42.600;23.470;2023-05-20T09:37:20;93284.75;;;23.61;67.97
6038;BME280;3047;42.600;23.470;2023-05-20T09:39:54;93269.75;;;23.43;64.69
6038;BME280;3047;42.600;23.470;2023-05-20T09:42:25;93285.59;;;23.50;63.98
6038;BME280;3047;42.600;23.470;2023-05-20T09:44:54;93283.91;;;23.27;65.82
6038;BME280;3047;42.600;23.470;2023-05-20T09:47:22;93290.41;;;23.08;69.44
6038;BME280;3047;42.600;23.470;2023-05-20T09:49:51;93281.66;;;22.87;69.96
6038;BME280;3047;42.600;23.470;2023-05-20T09:52:18;93265.53;;;22.61;69.29
6038;BME280;3047;42.600;23.470;2023-05-20T09:54:45;93254.25;;;22.27;73.32
6038;BME280;3047;42.600;23.470;2023-05-20T09:57:13;93264.13;;;22.44;76.42
6038;BME280;3047;42.600;23.470;2023-05-20T09:59:43;93264.38;;;22.65;70.36
6038;BME280;3047;42.600;23.470;2023-05-20T10:02:10;93265.47;;;22.74;73.00
6038;BME280;3047;42.600;23.470;2023-05-20T10:04:41;93262.28;;;22.70;70.02
6038;BME280;3047;42.600;23.470;2023-05-20T10:07:27;93250.38;;;22.45;70.65
6038;BME280;3047;42.600;23.470;2023-05-20T10:10:04;93252.28;;;22.54;73.30
6038;BME280;3047;42.600;23.470;2023-05-20T10:12:39;93258.50;;;22.63;73.00
6038;BME280;3047;42.600;23.470;2023-05-20T10:15:15;93253.13;;;22.66;70.88
6038;BME280;3047;42.600;23.470;2023-05-20T10:17:47;93249.16;;;22.62;68.89
6038;BME280;3047;42.600;23.470;2023-05-20T10:20:20;93234.03;;;22.57;69.69
6038;BME280;3047;42.600;23.470;2023-05-20T10:22:54;93238.13;;;22.36;71.75
6038;BME280;3047;42.600;23.470;2023-05-20T10:25:25;93230.41;;;22.36;69.63
6038;BME280;3047;42.600;23.470;2023-05-20T10:28:03;93222.97;;;22.44;71.01
6038;BME280;3047;42.600;23.470;2023-05-20T10:30:33;93242.41;;;22.83;67.51
6038;BME280;3047;42.600;23.470;2023-05-20T10:33:02;93227.56;;;22.87;67.00
6038;BME280;3047;42.600;23.470;2023-05-20T10:35:30;93243.22;;;22.84;64.85
6038;BME280;3047;42.600;23.470;2023-05-20T10:38:06;93234.09;;;22.80;69.96
6038;BME280;3047;42.600;23.470;2023-05-20T10:40:33;93202.69;;;22.63;66.68
6038;BME280;3047;42.600;23.470;2023-05-20T10:43:08;93228.88;;;22.92;64.44
6038;BME280;3047;42.600;23.470;2023-05-20T10:45:46;93232.59;;;22.77;63.05
6038;BME280;3047;42.600;23.470;2023-05-20T10:48:19;93235.06;;;22.55;64.92
6038;BME280;3047;42.600;23.470;2023-05-20T10:50:46;93222.47;;;22.39;68.26
6038;BME280;3047;42.600;23.470;2023-05-20T10:53:13;93219.56;;;22.19;71.40
6038;BME280;3047;42.600;23.470;2023-05-20T10:55:47;93223.31;;;22.03;67.28
6038;BME280;3047;42.600;23.470;2023-05-20T10:58:16;93198.34;;;21.68;67.81
6038;BME280;3047;42.600;23.470;2023-05-20T11:00:46;93184.50;;;21.45;70.04
6038;BME280;3047;42.600;23.470;2023-05-20T11:03:13;93193.75;;;21.47;67.02
6038;BME280;3047;42.600;23.470;2023-05-20T11:05:40;93231.69;;;21.44;66.96
6038;BME280;3047;42.600;23.470;2023-05-20T11:08:08;93213.47;;;21.21;69.36
6038;BME280;3047;42.600;23.470;2023-05-20T11:10:35;93189.75;;;20.92;72.11
6038;BME280;3047;42.600;23.470;2023-05-20T11:13:03;93184.41;;;20.95;72.44
6038;BME280;3047;42.600;23.470;2023-05-20T11:15:30;93217.78;;;21.08;70.12
6038;BME280;3047;42.600;23.470;2023-05-20T11:18:02;93205.25;;;21.04;74.68
6038;BME280;3047;42.600;23.470;2023-05-20T11:20:30;93208.41;;;20.82;70.11
6038;BME280;3047;42.600;23.470;2023-05-20T11:23:00;93198.44;;;20.52;71.03
6038;BME280;3047;42.600;23.470;2023-05-20T11:25:27;93193.75;;;20.44;74.17
6038;BME280;3047;42.600;23.470;2023-05-20T11:27:53;93184.41;;;20.30;75.10
6038;BME280;3047;42.600;23.470;2023-05-20T11:30:21;93125.41;;;19.90;74.75
6038;BME280;3047;42.600;23.470;2023-05-20T11:32:55;93184.34;;;20.17;73.76
6038;BME280;3047;42.600;23.470;2023-05-20T11:35:25;93184.78;;;19.97;74.38
6038;BME280;3047;42.600;23.470;2023-05-20T11:37:54;93184.06;;;19.95;74.59
6038;BME280;3047;42.600;23.470;2023-05-20T11:40:23;93193.81;;;19.75;75.83
6038;BME280;3047;42.600;23.470;2023-05-20T11:42:52;93195.94;;;19.55;77.12
6038;BME280;3047;42.600;23.470;2023-05-20T11:45:19;93178.81;;;19.55;77.00
6038;BME280;3047;42.600;23.470;2023-05-20T11:47:46;93171.78;;;19.73;78.32
6038;BME280;3047;42.600;23.470;2023-05-20T11:50:16;93162.19;;;19.62;79.07
6038;BME280;3047;42.600;23.470;2023-05-20T11:52:44;93178.28;;;19.64;78.84
6038;BME280;3047;42.600;23.470;2023-05-20T11:55:13;93180.66;;;19.67;80.05
6038;BME280;3047;42.600;23.470;2023-05-20T11:57:40;93179.75;;;19.54;79.68
6038;BME280;3047;42.600;23.470;2023-05-20T12:00:07;93182.44;;;19.38;80.41
6038;BME280;3047;42.600;23.470;2023-05-20T12:02:35;93170.94;;;19.17;79.80
6038;BME280;3047;42.600;23.470;2023-05-20T12:05:01;93152.00;;;19.05;80.18
6038;BME280;3047;42.600;23.470;2023-05-20T12:07:28;93106.09;;;18.88;79.20
6038;BME280;3047;42.600;23.470;2023-05-20T12:09:56;93150.88;;;19.23;81.86
6038;BME280;3047;42.600;23.470;2023-05-20T12:12:23;93189.84;;;19.29;82.77
6038;BME280;3047;42.600;23.470;2023-05-20T12:14:50;93218.13;;;19.13;81.76
6038;BME280;3047;42.600;23.470;2023-05-20T12:17:16;93174.50;;;18.56;82.74
6038;BME280;3047;42.600;23.470;2023-05-20T12:19:43;93229.72;;;18.60;86.05
6038;BME280;3047;42.600;23.470;2023-05-20T12:22:10;93223.81;;;18.43;85.30
6038;BME280;3047;42.600;23.470;2023-05-20T12:24:36;93213.69;;;18.26;87.39
6038;BME280;3047;42.600;23.470;2023-05-20T12:27:04;93223.44;;;18.19;89.23
6038;BME280;3047;42.600;23.470;2023-05-20T12:29:32;93216.00;;;18.15;92.04
6038;BME280;3047;42.600;23.470;2023-05-20T12:31:59;93224.75;;;18.11;92.20
6038;BME280;3047;42.600;23.470;2023-05-20T12:34:25;93226.34;;;17.97;93.38
6038;BME280;3047;42.600;23.470;2023-05-20T12:36:52;93204.38;;;17.79;97.41
6038;BME280;3047;42.600;23.470;2023-05-20T12:39:19;93226.94;;;17.87;94.22
6038;BME280;3047;42.600;23.470;2023-05-20T12:41:46;93223.06;;;17.79;91.80
6038;BME280;3047;42.600;23.470;2023-05-20T12:44:14;93219.03;;;17.75;91.84
6038;BME280;3047;42.600;23.470;2023-05-20T12:46:41;93209.28;;;17.66;90.74
6038;BME280;3047;42.600;23.470;2023-05-20T12:49:07;93208.84;;;17.58;89.75
6038;BME280;3047;42.600;23.470;2023-05-20T12:51:34;93197.91;;;17.56;89.73
6038;BME280;3047;42.600;23.470;2023-05-20T12:54:01;93192.94;;;17.69;87.99
6038;BME280;3047;42.600;23.470;2023-05-20T12:56:28;93196.50;;;17.82;86.99
6038;BME280;3047;42.600;23.470;2023-05-20T12:58:54;93182.84;;;17.83;86.47
6038;BME280;3047;42.600;23.470;2023-05-20T13:01:23;93141.16;;;17.83;87.70
6038;BME280;3047;42.600;23.470;2023-05-20T13:03:50;93166.81;;;18.11;85.20
6038;BME280;3047;42.600;23.470;2023-05-20T13:06:18;93170.59;;;18.20;85.63
6038;BME280;3047;42.600;23.470;2023-05-20T13:08:44;93171.97;;;18.25;86.05
6038;BME280;3047;42.600;23.470;2023-05-20T13:11:11;93170.06;;;18.29;88.19